Time;durP1;ratioP1;P1;durP2;ratioP2;P2;SDS_P1;SDS_P2;PMS_P1;PMS_P2;Temp;Humidity;BMP_temperature;BMP_pressure;BME280_temperature;BME280_humidity;BME280_pressure;Samples;Min_cycle;Max_cycle;Signal;HPM_P1;HPM_P2
2021/06/22 00:01:07;;;;;;;2.03;1.90;;;;;;;22.58;66.25;99857.28;;;;-51
2021/06/22 00:04:07;;;;;;;2.36;1.99;;;;;;;22.58;66.15;99866.77;;;;-51
2021/06/22 00:07:07;;;;;;;2.13;1.93;;;;;;;22.58;66.21;99871.19;;;;-50
2021/06/22 00:10:07;;;;;;;2.40;2.09;;;;;;;22.57;66.22;99869.05;;;;-51
2021/06/22 00:13:07;;;;;;;1.89;1.75;;;;;;;22.57;66.23;99858.92;;;;-50
2021/06/22 00:16:07;;;;;;;1.85;1.75;;;;;;;22.57;66.16;99864.25;;;;-50
2021/06/22 00:19:07;;;;;;;1.99;1.80;;;;;;;22.56;66.17;99868.67;;;;-50
2021/06/22 00:22:07;;;;;;;3.06;2.01;;;;;;;22.56;66.20;99865.41;;;;-50
2021/06/22 00:25:07;;;;;;;2.05;1.85;;;;;;;22.56;66.19;99860.66;;;;-50
2021/06/22 00:28:07;;;;;;;2.14;1.94;;;;;;;22.55;66.15;99855.84;;;;-51
2021/06/22 00:31:07;;;;;;;2.29;1.80;;;;;;;22.55;66.20;99854.16;;;;-51
2021/06/22 00:34:07;;;;;;;2.13;1.91;;;;;;;22.55;66.20;99851.37;;;;-51
2021/06/22 00:37:07;;;;;;;2.08;1.89;;;;;;;22.54;66.20;99852.61;;;;-51
2021/06/22 00:40:07;;;;;;;2.03;1.89;;;;;;;22.53;66.19;99849.02;;;;-51
2021/06/22 00:43:07;;;;;;;3.09;1.91;;;;;;;22.53;66.21;99851.47;;;;-51
2021/06/22 00:46:07;;;;;;;2.17;1.96;;;;;;;22.53;66.20;99855.64;;;;-50
2021/06/22 00:49:07;;;;;;;2.02;1.84;;;;;;;22.52;66.17;99851.83;;;;-51
2021/06/22 00:52:07;;;;;;;1.81;1.71;;;;;;;22.53;66.19;99848.31;;;;-50
2021/06/22 00:55:12;;;;;;;1.95;1.84;;;;;;;22.52;66.13;99845.06;;;;-50
2021/06/22 00:58:07;;;;;;;2.09;1.80;;;;;;;22.52;66.15;99844.75;;;;-51
2021/06/22 01:01:07;;;;;;;2.11;1.91;;;;;;;22.51;66.17;99843.59;;;;-51
2021/06/22 01:04:07;;;;;;;2.15;1.89;;;;;;;22.51;66.22;99846.86;;;;-51
2021/06/22 01:07:07;;;;;;;4.07;1.97;;;;;;;22.50;66.17;99851.28;;;;-50
2021/06/22 01:10:07;;;;;;;2.47;2.06;;;;;;;22.50;66.16;99849.91;;;;-50
2021/06/22 01:13:07;;;;;;;1.99;1.80;;;;;;;22.50;66.19;99856.94;;;;-50
2021/06/22 01:16:07;;;;;;;1.89;1.79;;;;;;;22.50;66.17;99860.05;;;;-51
2021/06/22 01:19:07;;;;;;;2.11;1.80;;;;;;;22.49;66.15;99865.41;;;;-51
2021/06/22 01:22:07;;;;;;;2.00;1.80;;;;;;;22.49;66.18;99870.73;;;;-51
2021/06/22 01:25:07;;;;;;;2.21;2.01;;;;;;;22.49;66.18;99875.39;;;;-50
2021/06/22 01:28:07;;;;;;;3.13;1.85;;;;;;;22.49;66.12;99870.00;;;;-50
2021/06/22 01:31:07;;;;;;;1.99;1.80;;;;;;;22.48;66.21;99872.81;;;;-51
2021/06/22 01:34:07;;;;;;;2.10;1.90;;;;;;;22.48;66.16;99877.88;;;;-50
2021/06/22 01:37:07;;;;;;;1.91;1.76;;;;;;;22.47;66.19;99876.88;;;;-51
2021/06/22 01:40:07;;;;;;;2.08;1.88;;;;;;;22.47;66.19;99879.42;;;;-50
2021/06/22 01:43:07;;;;;;;2.13;1.95;;;;;;;22.46;66.20;99882.21;;;;-50
2021/06/22 01:46:07;;;;;;;2.38;1.88;;;;;;;22.46;66.14;99876.44;;;;-51
2021/06/22 01:49:07;;;;;;;2.13;1.90;;;;;;;22.46;66.17;99878.23;;;;-51
2021/06/22 01:52:07;;;;;;;2.14;1.94;;;;;;;22.45;66.15;99885.34;;;;-50
2021/06/22 01:55:35;;;;;;;2.20;2.00;;;;;;;22.45;66.20;99887.45;;;;-51
2021/06/22 01:58:07;;;;;;;2.00;1.90;;;;;;;22.45;66.24;99888.02;;;;-51
2021/06/22 02:01:07;;;;;;;2.19;2.05;;;;;;;22.44;66.18;99882.49;;;;-51
2021/06/22 02:04:07;;;;;;;1.81;1.71;;;;;;;22.45;66.16;99884.27;;;;-51
2021/06/22 02:07:07;;;;;;;1.93;1.83;;;;;;;22.43;66.15;99879.66;;;;-50
2021/06/22 02:10:07;;;;;;;2.09;1.89;;;;;;;22.43;66.18;99881.62;;;;-50
2021/06/22 02:13:07;;;;;;;2.00;1.90;;;;;;;22.44;66.18;99881.53;;;;-51
2021/06/22 02:16:07;;;;;;;2.05;1.91;;;;;;;22.43;66.18;99881.20;;;;-51
2021/06/22 02:19:07;;;;;;;2.07;1.91;;;;;;;22.43;66.22;99879.89;;;;-50
2021/06/22 02:22:07;;;;;;;1.82;1.72;;;;;;;22.42;66.20;99878.70;;;;-51
2021/06/22 02:25:07;;;;;;;2.11;1.91;;;;;;;22.42;66.19;99886.53;;;;-51
2021/06/22 02:28:07;;;;;;;2.04;1.87;;;;;;;22.42;66.19;99879.67;;;;-50
2021/06/22 02:31:07;;;;;;;2.12;1.92;;;;;;;22.41;66.14;99877.72;;;;-50
2021/06/22 02:34:07;;;;;;;2.27;2.07;;;;;;;22.40;66.19;99875.84;;;;-51
2021/06/22 02:37:07;;;;;;;2.17;1.97;;;;;;;22.41;66.21;99880.33;;;;-51
2021/06/22 02:40:07;;;;;;;2.11;1.95;;;;;;;22.40;66.20;99883.77;;;;-51
2021/06/22 02:43:07;;;;;;;2.00;1.90;;;;;;;22.40;66.19;99882.05;;;;-51
2021/06/22 02:46:07;;;;;;;2.33;2.05;;;;;;;22.40;66.24;99876.84;;;;-51
2021/06/22 02:49:07;;;;;;;2.08;1.94;;;;;;;22.39;66.22;99869.27;;;;-51
2021/06/22 02:52:07;;;;;;;2.11;1.99;;;;;;;22.39;66.14;99869.02;;;;-50
2021/06/22 02:55:07;;;;;;;2.05;1.91;;;;;;;22.39;66.28;99863.22;;;;-50
2021/06/22 02:58:07;;;;;;;2.01;1.89;;;;;;;22.38;66.27;99864.94;;;;-51
2021/06/22 03:01:07;;;;;;;2.17;2.00;;;;;;;22.38;66.22;99862.02;;;;-50
2021/06/22 03:04:07;;;;;;;2.24;1.97;;;;;;;22.38;66.28;99863.25;;;;-51
2021/06/22 03:07:07;;;;;;;2.31;2.10;;;;;;;22.38;66.21;99864.87;;;;-51
2021/06/22 03:10:07;;;;;;;2.05;1.91;;;;;;;22.38;66.28;99865.86;;;;-51
2021/06/22 03:13:07;;;;;;;2.31;2.11;;;;;;;22.37;66.20;99864.06;;;;-50
2021/06/22 03:16:07;;;;;;;2.20;1.99;;;;;;;22.37;66.30;99871.91;;;;-51
2021/06/22 03:19:07;;;;;;;2.11;1.93;;;;;;;22.37;66.29;99876.07;;;;-51
2021/06/22 03:22:07;;;;;;;2.29;2.09;;;;;;;22.37;66.36;99870.99;;;;-51
2021/06/22 03:25:07;;;;;;;2.37;1.90;;;;;;;22.37;66.32;99872.14;;;;-51
2021/06/22 03:28:07;;;;;;;2.36;2.16;;;;;;;22.36;66.30;99864.23;;;;-51
2021/06/22 03:31:07;;;;;;;2.02;1.92;;;;;;;22.36;66.32;99866.03;;;;-51
2021/06/22 03:34:07;;;;;;;2.25;2.05;;;;;;;22.36;66.31;99862.30;;;;-51
2021/06/22 03:37:07;;;;;;;2.22;2.02;;;;;;;22.35;66.37;99866.94;;;;-51
2021/06/22 03:40:07;;;;;;;2.17;1.98;;;;;;;22.35;66.37;99867.70;;;;-51
2021/06/22 03:43:07;;;;;;;2.25;2.05;;;;;;;22.35;66.33;99870.38;;;;-51
2021/06/22 03:46:07;;;;;;;2.01;1.91;;;;;;;22.35;66.34;99867.84;;;;-51
2021/06/22 03:49:07;;;;;;;2.27;2.09;;;;;;;22.34;66.27;99865.65;;;;-51
2021/06/22 03:52:07;;;;;;;2.31;2.11;;;;;;;22.34;66.39;99868.53;;;;-51
2021/06/22 03:55:26;;;;;;;2.01;1.85;;;;;;;22.33;66.38;99862.41;;;;-51
2021/06/22 03:58:07;;;;;;;2.37;2.17;;;;;;;22.33;66.32;99869.11;;;;-51
2021/06/22 04:01:07;;;;;;;2.01;1.91;;;;;;;22.33;66.35;99874.64;;;;-50
2021/06/22 04:04:07;;;;;;;2.31;2.09;;;;;;;22.33;66.37;99873.45;;;;-51
2021/06/22 04:07:07;;;;;;;2.10;2.00;;;;;;;22.33;66.35;99868.69;;;;-50
2021/06/22 04:10:07;;;;;;;2.13;1.96;;;;;;;22.32;66.35;99874.01;;;;-50
2021/06/22 04:13:07;;;;;;;2.00;1.90;;;;;;;22.32;66.32;99873.70;;;;-51
2021/06/22 04:16:07;;;;;;;2.02;1.89;;;;;;;22.32;66.37;99866.66;;;;-51
2021/06/22 04:19:07;;;;;;;2.07;1.90;;;;;;;22.32;66.32;99866.67;;;;-50
2021/06/22 04:22:07;;;;;;;2.20;2.00;;;;;;;22.31;66.38;99871.59;;;;-50
2021/06/22 04:25:07;;;;;;;1.99;1.89;;;;;;;22.31;66.33;99869.63;;;;-51
2021/06/22 04:28:07;;;;;;;6.24;4.83;;;;;;;22.30;66.66;99877.05;;;;-49
2021/06/22 04:31:07;;;;;;;7.57;6.49;;;;;;;22.20;67.07;99876.11;;;;-50
2021/06/22 04:34:07;;;;;;;11.29;7.74;;;;;;;22.12;67.70;99883.81;;;;-49
2021/06/22 04:37:07;;;;;;;8.27;7.47;;;;;;;22.04;68.06;99890.95;;;;-52
2021/06/22 04:40:07;;;;;;;13.25;8.13;;;;;;;21.93;68.18;99898.92;;;;-50
2021/06/22 04:43:07;;;;;;;11.17;8.11;;;;;;;21.86;68.63;99896.25;;;;-52
2021/06/22 04:46:07;;;;;;;10.56;7.84;;;;;;;21.76;68.76;99890.91;;;;-50
2021/06/22 04:49:07;;;;;;;10.62;8.40;;;;;;;21.67;68.97;99895.11;;;;-50
2021/06/22 04:52:09;;;;;;;10.20;7.24;;;;;;;21.58;69.37;99893.73;;;;-50
2021/06/22 04:55:12;;;;;;;8.43;7.39;;;;;;;21.53;69.63;99892.23;;;;-50
2021/06/22 04:58:07;;;;;;;10.80;7.38;;;;;;;21.46;69.78;99897.22;;;;-50
2021/06/22 05:01:07;;;;;;;8.21;7.10;;;;;;;21.41;70.02;99900.56;;;;-50
2021/06/22 05:04:07;;;;;;;7.97;7.03;;;;;;;21.36;70.34;99904.53;;;;-51
2021/06/22 05:07:07;;;;;;;9.09;7.29;;;;;;;21.32;70.82;99909.45;;;;-50
2021/06/22 05:10:07;;;;;;;8.43;6.60;;;;;;;21.31;70.99;99910.36;;;;-50
2021/06/22 05:13:07;;;;;;;8.59;7.04;;;;;;;21.27;71.07;99916.03;;;;-50
2021/06/22 05:16:07;;;;;;;10.24;7.10;;;;;;;21.23;70.89;99915.09;;;;-50
2021/06/22 05:19:07;;;;;;;8.15;6.56;;;;;;;21.19;70.90;99921.10;;;;-52
2021/06/22 05:22:07;;;;;;;8.79;6.42;;;;;;;21.15;71.54;99932.28;;;;-52
2021/06/22 05:25:07;;;;;;;7.60;6.55;;;;;;;21.13;71.72;99942.34;;;;-58
2021/06/22 05:28:07;;;;;;;7.56;6.24;;;;;;;21.11;71.78;99942.84;;;;-58
2021/06/22 05:31:07;;;;;;;8.57;5.45;;;;;;;21.07;70.86;99938.96;;;;-57
2021/06/22 05:34:07;;;;;;;5.87;5.31;;;;;;;21.02;70.55;99942.16;;;;-57
2021/06/22 05:37:07;;;;;;;9.33;4.88;;;;;;;20.97;70.41;99950.03;;;;-58
2021/06/22 05:40:07;;;;;;;7.57;4.77;;;;;;;20.91;70.33;99948.20;;;;-58
2021/06/22 05:43:07;;;;;;;7.15;4.90;;;;;;;20.88;70.58;99942.22;;;;-58
2021/06/22 05:46:07;;;;;;;5.80;4.45;;;;;;;20.84;70.39;99941.09;;;;-53
2021/06/22 05:49:07;;;;;;;5.18;4.35;;;;;;;20.81;70.49;99945.50;;;;-53
2021/06/22 05:52:07;;;;;;;5.53;4.67;;;;;;;20.76;70.50;99946.61;;;;-53
2021/06/22 05:55:16;;;;;;;6.06;4.29;;;;;;;20.76;70.83;99946.78;;;;-53
2021/06/22 05:58:07;;;;;;;8.25;4.41;;;;;;;20.70;70.97;99952.52;;;;-53
2021/06/22 06:01:07;;;;;;;8.27;4.39;;;;;;;20.72;70.94;99957.31;;;;-51
2021/06/22 06:04:07;;;;;;;7.93;4.69;;;;;;;20.68;70.92;99965.79;;;;-53
2021/06/22 06:07:07;;;;;;;8.51;4.09;;;;;;;20.60;71.78;99972.61;;;;-52
2021/06/22 06:10:07;;;;;;;4.88;3.95;;;;;;;20.64;71.50;99975.91;;;;-52
2021/06/22 06:13:07;;;;;;;7.71;3.61;;;;;;;20.72;71.20;99976.05;;;;-59
2021/06/22 06:16:07;;;;;;;6.99;3.59;;;;;;;20.78;70.86;99979.58;;;;-57
2021/06/22 06:19:07;;;;;;;4.81;3.17;;;;;;;20.84;70.54;99985.23;;;;-51
2021/06/22 06:22:07;;;;;;;5.41;3.09;;;;;;;20.90;70.34;99978.45;;;;-51
2021/06/22 06:25:07;;;;;;;4.24;2.95;;;;;;;20.95;70.14;99978.40;;;;-51
2021/06/22 06:28:14;;;;;;;3.25;2.87;;;;;;;20.98;69.90;99981.97;;;;-51
2021/06/22 06:31:07;;;;;;;3.73;2.77;;;;;;;21.03;69.73;99984.94;;;;-51
2021/06/22 06:34:07;;;;;;;3.90;2.78;;;;;;;21.06;69.66;99985.97;;;;-51
2021/06/22 06:37:07;;;;;;;7.49;2.91;;;;;;;21.09;69.48;99994.51;;;;-51
2021/06/22 06:40:07;;;;;;;4.32;2.61;;;;;;;21.10;69.48;99990.81;;;;-51
2021/06/22 06:43:07;;;;;;;3.34;2.59;;;;;;;21.13;69.29;99991.62;;;;-51
2021/06/22 06:46:07;;;;;;;2.86;2.45;;;;;;;21.15;69.27;99987.38;;;;-51
2021/06/22 06:49:07;;;;;;;2.99;2.53;;;;;;;21.17;69.19;99991.02;;;;-51
2021/06/22 06:52:07;;;;;;;3.39;2.28;;;;;;;21.19;69.14;99995.42;;;;-51
2021/06/22 06:55:24;;;;;;;3.37;2.30;;;;;;;21.20;69.00;99999.05;;;;-51
2021/06/22 06:58:07;;;;;;;3.15;2.38;;;;;;;21.21;69.09;100000.11;;;;-51
2021/06/22 07:01:07;;;;;;;3.21;2.35;;;;;;;21.23;69.00;100003.03;;;;-51
2021/06/22 07:04:07;;;;;;;2.97;2.51;;;;;;;21.25;68.96;100012.21;;;;-51
2021/06/22 07:07:07;;;;;;;2.57;2.32;;;;;;;21.25;68.97;100012.30;;;;-51
2021/06/22 07:10:07;;;;;;;3.69;2.58;;;;;;;21.27;68.84;100013.58;;;;-51
2021/06/22 07:13:13;;;;;;;3.04;2.25;;;;;;;21.28;68.79;100011.06;;;;-51
2021/06/22 07:16:07;;;;;;;3.09;2.23;;;;;;;21.30;68.77;100017.88;;;;-51
2021/06/22 07:19:07;;;;;;;3.38;2.40;;;;;;;21.31;68.78;100018.19;;;;-51
2021/06/22 07:22:07;;;;;;;2.57;2.37;;;;;;;21.32;68.70;100022.67;;;;-51
2021/06/22 07:25:07;;;;;;;3.22;2.27;;;;;;;21.33;68.74;100027.47;;;;-51
2021/06/22 07:28:07;;;;;;;3.26;2.35;;;;;;;21.34;68.65;100023.31;;;;-51
2021/06/22 07:31:07;;;;;;;2.45;2.25;;;;;;;21.35;68.74;100027.52;;;;-51
2021/06/22 07:34:07;;;;;;;3.07;2.34;;;;;;;21.36;68.66;100028.92;;;;-51
2021/06/22 07:37:07;;;;;;;2.33;2.11;;;;;;;21.36;68.55;100027.70;;;;-51
2021/06/22 07:40:07;;;;;;;2.29;2.09;;;;;;;21.38;68.63;100023.94;;;;-51
2021/06/22 07:43:07;;;;;;;3.65;2.31;;;;;;;21.38;68.56;100026.86;;;;-51
2021/06/22 07:46:07;;;;;;;2.81;2.17;;;;;;;21.39;68.56;100026.03;;;;-51
2021/06/22 07:49:07;;;;;;;2.45;2.25;;;;;;;21.39;68.64;100023.36;;;;-59
2021/06/22 07:52:07;;;;;;;2.40;2.20;;;;;;;21.40;68.66;100025.30;;;;-59
2021/06/22 07:55:13;;;;;;;2.29;2.10;;;;;;;21.40;68.58;100026.52;;;;-58
2021/06/22 07:58:07;;;;;;;2.51;2.19;;;;;;;21.41;68.56;100021.95;;;;-58
2021/06/22 08:01:07;;;;;;;2.37;2.10;;;;;;;21.42;68.54;100028.31;;;;-58
2021/06/22 08:04:07;;;;;;;2.31;2.11;;;;;;;21.43;68.56;100029.38;;;;-58
2021/06/22 08:07:07;;;;;;;2.39;2.19;;;;;;;21.45;68.62;100028.05;;;;-56
2021/06/22 08:10:07;;;;;;;4.51;2.10;;;;;;;21.46;69.21;100025.27;;;;-53
2021/06/22 08:13:07;;;;;;;3.29;2.16;;;;;;;21.47;69.18;100018.75;;;;-56
2021/06/22 08:16:07;;;;;;;4.46;2.40;;;;;;;21.49;69.71;100015.95;;;;-54
2021/06/22 08:19:07;;;;;;;8.00;2.52;;;;;;;21.53;69.66;100026.67;;;;-56
2021/06/22 08:22:07;;;;;;;7.91;2.61;;;;;;;21.56;69.59;100038.22;;;;-55
2021/06/22 08:25:07;;;;;;;16.65;2.54;;;;;;;21.58;69.44;100028.99;;;;-56
2021/06/22 08:28:07;;;;;;;6.07;2.49;;;;;;;21.62;69.71;100028.72;;;;-53
2021/06/22 08:31:07;;;;;;;9.55;2.38;;;;;;;21.65;69.81;100032.62;;;;-51
2021/06/22 08:34:07;;;;;;;6.71;2.47;;;;;;;21.68;69.86;100019.11;;;;-54
2021/06/22 08:37:07;;;;;;;5.60;2.20;;;;;;;21.71;69.65;100015.10;;;;-59
2021/06/22 08:40:07;;;;;;;3.57;2.29;;;;;;;21.74;69.92;100020.20;;;;-57
2021/06/22 08:43:07;;;;;;;4.61;2.21;;;;;;;21.76;69.87;100026.86;;;;-59
2021/06/22 08:46:08;;;;;;;5.01;2.11;;;;;;;21.79;70.04;100036.38;;;;-54
2021/06/22 08:49:06;;;;;;;7.75;2.43;;;;;;;21.82;69.83;100044.02;;;;-57
2021/06/22 08:52:08;;;;;;;4.77;2.34;;;;;;;21.83;69.92;100055.52;;;;-53
2021/06/22 08:55:07;;;;;;;7.56;2.47;;;;;;;21.84;69.79;100060.32;;;;-53
2021/06/22 08:58:07;;;;;;;3.18;2.34;;;;;;;21.86;69.99;100066.91;;;;-52
2021/06/22 09:01:07;;;;;;;2.89;2.27;;;;;;;21.87;69.76;100059.95;;;;-54
2021/06/22 09:04:06;;;;;;;3.59;2.22;;;;;;;21.88;69.79;100061.65;;;;-58
2021/06/22 09:07:07;;;;;;;2.69;2.35;;;;;;;21.90;70.02;100064.89;;;;-57
2021/06/22 09:10:07;;;;;;;5.73;2.25;;;;;;;21.91;69.71;100064.64;;;;-51
2021/06/22 09:13:07;;;;;;;3.51;2.19;;;;;;;21.91;69.60;100065.45;;;;-53
2021/06/22 09:16:07;;;;;;;7.66;2.29;;;;;;;21.91;69.82;100055.33;;;;-51
2021/06/22 09:19:07;;;;;;;5.09;2.30;;;;;;;21.93;69.84;100047.98;;;;-50
2021/06/22 09:22:07;;;;;;;7.93;2.41;;;;;;;21.94;69.82;100055.41;;;;-46
2021/06/22 09:25:09;;;;;;;5.33;2.55;;;;;;;21.95;69.66;100071.29;;;;-52
2021/06/22 09:28:07;;;;;;;6.97;2.13;;;;;;;21.96;69.64;100077.09;;;;-50
2021/06/22 09:31:07;;;;;;;3.42;2.45;;;;;;;21.98;69.60;100075.51;;;;-50
2021/06/22 09:34:07;;;;;;;5.55;2.33;;;;;;;21.99;69.54;100083.08;;;;-55
2021/06/22 09:37:08;;;;;;;2.91;2.27;;;;;;;22.00;69.42;100086.09;;;;-50
2021/06/22 09:40:07;;;;;;;5.43;2.29;;;;;;;22.02;69.58;100092.61;;;;-49
2021/06/22 09:43:07;;;;;;;6.97;2.55;;;;;;;22.05;69.36;100098.13;;;;-52
2021/06/22 09:46:07;;;;;;;3.74;2.22;;;;;;;22.05;69.29;100091.66;;;;-48
2021/06/22 09:49:07;;;;;;;7.06;2.41;;;;;;;22.06;69.37;100089.63;;;;-61
2021/06/22 09:52:08;;;;;;;4.07;2.37;;;;;;;22.09;69.41;100097.27;;;;-55
2021/06/22 09:55:07;;;;;;;5.23;2.51;;;;;;;22.08;69.25;100103.41;;;;-56
2021/06/22 09:58:07;;;;;;;5.91;2.30;;;;;;;22.09;69.22;100103.95;;;;-57
2021/06/22 10:01:07;;;;;;;3.83;2.19;;;;;;;22.10;69.23;100109.50;;;;-57
2021/06/22 10:04:07;;;;;;;2.43;2.19;;;;;;;22.10;69.21;100103.38;;;;-50
2021/06/22 10:07:07;;;;;;;3.34;2.30;;;;;;;22.12;69.16;100107.02;;;;-50
2021/06/22 10:10:07;;;;;;;6.17;2.45;;;;;;;22.12;69.05;100103.12;;;;-51
2021/06/22 10:13:07;;;;;;;5.95;2.30;;;;;;;22.14;69.22;100099.73;;;;-50
2021/06/22 10:16:07;;;;;;;5.65;2.33;;;;;;;22.14;69.08;100107.33;;;;-50
2021/06/22 10:19:07;;;;;;;6.35;2.16;;;;;;;22.15;69.10;100117.86;;;;-50
2021/06/22 10:22:07;;;;;;;5.39;2.31;;;;;;;22.16;69.07;100118.56;;;;-52
2021/06/22 10:25:08;;;;;;;5.29;2.29;;;;;;;22.17;69.05;100120.03;;;;-53
2021/06/22 10:28:07;;;;;;;3.07;2.31;;;;;;;22.18;68.96;100129.80;;;;-50
2021/06/22 10:31:07;;;;;;;3.97;2.29;;;;;;;22.19;68.98;100131.77;;;;-49
2021/06/22 10:34:07;;;;;;;3.70;2.18;;;;;;;22.19;68.92;100124.09;;;;-49
2021/06/22 10:37:07;;;;;;;4.15;2.23;;;;;;;22.20;68.79;100121.31;;;;-50
2021/06/22 10:40:07;;;;;;;4.14;2.09;;;;;;;22.22;68.54;100122.17;;;;-50
2021/06/22 10:43:07;;;;;;;5.14;2.30;;;;;;;22.22;68.62;100126.59;;;;-50
2021/06/22 10:46:07;;;;;;;4.44;2.03;;;;;;;22.21;68.59;100132.00;;;;-50
2021/06/22 10:49:06;;;;;;;4.79;2.20;;;;;;;22.21;68.68;100135.34;;;;-50
2021/06/22 10:52:07;;;;;;;3.02;2.17;;;;;;;22.20;68.65;100140.09;;;;-51
2021/06/22 10:55:07;;;;;;;3.15;2.02;;;;;;;22.21;68.64;100144.58;;;;-51
2021/06/22 10:58:07;;;;;;;3.70;2.09;;;;;;;22.20;68.61;100142.03;;;;-51
2021/06/22 11:01:07;;;;;;;2.81;2.31;;;;;;;22.20;68.46;100126.28;;;;-50
2021/06/22 11:04:07;;;;;;;2.63;2.13;;;;;;;22.20;68.47;100121.71;;;;-51
2021/06/22 11:07:07;;;;;;;6.01;2.36;;;;;;;22.19;68.46;100113.56;;;;-50
2021/06/22 11:10:07;;;;;;;4.13;2.30;;;;;;;22.19;68.39;100113.31;;;;-50
2021/06/22 11:13:07;;;;;;;2.39;2.11;;;;;;;22.19;68.34;100110.95;;;;-51
2021/06/22 11:16:07;;;;;;;3.06;2.21;;;;;;;22.19;68.28;100117.82;;;;-50
2021/06/22 11:19:07;;;;;;;4.98;2.23;;;;;;;22.19;68.30;100124.52;;;;-49
2021/06/22 11:22:07;;;;;;;2.15;1.92;;;;;;;22.19;68.28;100132.34;;;;-49
2021/06/22 11:25:07;;;;;;;3.12;2.21;;;;;;;22.19;68.23;100138.54;;;;-51
2021/06/22 11:28:07;;;;;;;2.44;2.15;;;;;;;22.18;68.23;100136.19;;;;-50
2021/06/22 11:31:07;;;;;;;2.77;2.10;;;;;;;22.19;68.11;100133.16;;;;-56
2021/06/22 11:34:07;;;;;;;4.32;2.37;;;;;;;22.18;68.03;100126.29;;;;-55
2021/06/22 11:37:07;;;;;;;2.79;2.17;;;;;;;22.18;68.15;100124.93;;;;-55
2021/06/22 11:40:07;;;;;;;3.67;2.10;;;;;;;22.18;68.09;100125.97;;;;-56
2021/06/22 11:43:07;;;;;;;3.55;2.17;;;;;;;22.18;68.02;100114.46;;;;-54
2021/06/22 11:46:07;;;;;;;2.93;2.06;;;;;;;22.18;67.92;100111.36;;;;-56
2021/06/22 11:49:06;;;;;;;2.73;1.81;;;;;;;22.18;67.98;100108.84;;;;-56
2021/06/22 11:52:07;;;;;;;2.30;2.10;;;;;;;22.17;67.89;100113.42;;;;-56
2021/06/22 11:55:14;;;;;;;2.44;2.19;;;;;;;22.17;68.08;100117.17;;;;-56
2021/06/22 11:58:07;;;;;;;2.69;2.02;;;;;;;22.17;67.82;100126.64;;;;-48
2021/06/22 12:01:07;;;;;;;2.48;1.89;;;;;;;22.17;67.88;100128.69;;;;-56
2021/06/22 12:04:06;;;;;;;2.20;1.98;;;;;;;22.18;67.85;100133.48;;;;-56
2021/06/22 12:07:07;;;;;;;2.93;2.10;;;;;;;22.17;67.90;100136.19;;;;-47
2021/06/22 12:10:07;;;;;;;1.99;1.89;;;;;;;22.17;67.93;100138.65;;;;-48
2021/06/22 12:13:06;;;;;;;3.64;1.80;;;;;;;22.17;67.90;100138.57;;;;-48
2021/06/22 12:16:07;;;;;;;3.29;2.11;;;;;;;22.17;67.79;100139.72;;;;-48
2021/06/22 12:19:07;;;;;;;2.73;2.07;;;;;;;22.16;67.79;100146.23;;;;-48
2021/06/22 12:22:07;;;;;;;2.58;2.14;;;;;;;22.16;67.79;100151.05;;;;-48
2021/06/22 12:25:07;;;;;;;2.14;1.91;;;;;;;22.16;67.77;100155.04;;;;-48
2021/06/22 12:28:07;;;;;;;2.32;1.79;;;;;;;22.16;67.69;100159.88;;;;-48
2021/06/22 12:31:07;;;;;;;2.43;1.99;;;;;;;22.17;67.75;100156.60;;;;-50
2021/06/22 12:34:06;;;;;;;2.05;1.84;;;;;;;22.16;67.75;100156.84;;;;-49
2021/06/22 12:37:08;;;;;;;2.27;1.80;;;;;;;22.16;67.69;100162.80;;;;-50
2021/06/22 12:40:07;;;;;;;2.43;1.90;;;;;;;22.16;67.72;100158.91;;;;-48
2021/06/22 12:43:07;;;;;;;2.10;1.90;;;;;;;22.16;67.66;100156.77;;;;-48
2021/06/22 12:46:07;;;;;;;2.00;1.90;;;;;;;22.15;67.70;100163.06;;;;-48
2021/06/22 12:49:09;;;;;;;3.19;1.92;;;;;;;22.16;67.67;100161.17;;;;-48
2021/06/22 12:52:07;;;;;;;2.25;1.95;;;;;;;22.16;67.70;100156.11;;;;-48
2021/06/22 12:55:07;;;;;;;2.85;1.96;;;;;;;22.15;67.65;100159.55;;;;-51
2021/06/22 12:58:07;;;;;;;2.87;2.10;;;;;;;22.15;67.67;100163.30;;;;-51
2021/06/22 13:01:07;;;;;;;2.75;2.04;;;;;;;22.15;67.67;100167.80;;;;-51
2021/06/22 13:04:07;;;;;;;1.91;1.77;;;;;;;22.15;67.59;100169.43;;;;-51
2021/06/22 13:07:07;;;;;;;2.10;1.90;;;;;;;22.15;67.64;100167.96;;;;-48
2021/06/22 13:10:07;;;;;;;2.17;1.97;;;;;;;22.15;67.55;100157.84;;;;-48
2021/06/22 13:13:07;;;;;;;2.24;1.92;;;;;;;22.14;67.49;100137.70;;;;-48
2021/06/22 13:16:07;;;;;;;1.98;1.79;;;;;;;22.15;67.54;100130.18;;;;-48
2021/06/22 13:19:08;;;;;;;2.21;1.79;;;;;;;22.15;67.53;100115.08;;;;-48
2021/06/22 13:22:07;;;;;;;2.51;2.03;;;;;;;22.14;67.53;100119.00;;;;-55
2021/06/22 13:25:07;;;;;;;2.31;1.90;;;;;;;22.14;67.56;100111.26;;;;-56
2021/06/22 13:28:07;;;;;;;2.18;1.95;;;;;;;22.15;67.54;100109.21;;;;-54
2021/06/22 13:31:07;;;;;;;6.86;2.10;;;;;;;22.15;67.53;100110.50;;;;-54
2021/06/22 13:34:07;;;;;;;5.33;2.30;;;;;;;22.18;68.31;100130.16;;;;-53
2021/06/22 13:37:06;;;;;;;7.44;2.41;;;;;;;22.20;68.30;100143.09;;;;-49
2021/06/22 13:40:07;;;;;;;11.56;2.61;;;;;;;22.21;68.29;100138.20;;;;-53
2021/06/22 13:43:07;;;;;;;8.40;2.44;;;;;;;22.23;68.36;100127.73;;;;-53
2021/06/22 13:46:07;;;;;;;4.78;2.19;;;;;;;22.23;68.51;100125.96;;;;-55
2021/06/22 13:49:06;;;;;;;5.60;2.63;;;;;;;22.24;68.54;100129.85;;;;-52
2021/06/22 13:52:07;;;;;;;4.51;2.31;;;;;;;22.24;68.34;100123.81;;;;-52
2021/06/22 13:55:07;;;;;;;5.91;2.52;;;;;;;22.24;68.17;100116.72;;;;-57
2021/06/22 13:58:07;;;;;;;4.49;2.36;;;;;;;22.24;68.13;100113.36;;;;-54
2021/06/22 14:01:07;;;;;;;4.03;2.67;;;;;;;22.25;68.12;100108.56;;;;-53
2021/06/22 14:04:06;;;;;;;2.82;2.31;;;;;;;22.24;68.17;100107.17;;;;-53
2021/06/22 14:07:07;;;;;;;3.88;2.50;;;;;;;22.24;68.02;100121.13;;;;-54
2021/06/22 14:10:07;;;;;;;3.42;2.27;;;;;;;22.24;68.04;100132.39;;;;-54
2021/06/22 14:13:06;;;;;;;3.20;2.22;;;;;;;22.23;68.02;100123.19;;;;-53
2021/06/22 14:16:07;;;;;;;5.69;2.40;;;;;;;22.23;67.97;100113.78;;;;-57
2021/06/22 14:19:06;;;;;;;2.74;2.21;;;;;;;22.23;67.95;100117.78;;;;-57
2021/06/22 14:22:07;;;;;;;3.41;2.25;;;;;;;22.23;67.91;100121.70;;;;-57
2021/06/22 14:25:07;;;;;;;3.06;2.21;;;;;;;22.23;67.85;100122.77;;;;-58
2021/06/22 14:28:06;;;;;;;3.57;2.20;;;;;;;22.23;67.74;100126.84;;;;-57
2021/06/22 14:31:07;;;;;;;2.97;2.28;;;;;;;22.23;67.68;100137.45;;;;-56
2021/06/22 14:34:07;;;;;;;3.31;2.27;;;;;;;22.23;67.81;100147.98;;;;-53
2021/06/22 14:37:06;;;;;;;4.41;2.13;;;;;;;22.23;67.62;100152.82;;;;-54
2021/06/22 14:40:07;;;;;;;2.63;2.07;;;;;;;22.24;67.72;100152.97;;;;-57
2021/06/22 14:43:06;;;;;;;2.83;2.25;;;;;;;22.23;67.69;100155.66;;;;-57
2021/06/22 14:46:08;;;;;;;5.46;2.30;;;;;;;22.23;67.68;100156.55;;;;-58
2021/06/22 14:49:07;;;;;;;8.89;2.46;;;;;;;22.22;67.75;100161.85;;;;-61
2021/06/22 14:52:07;;;;;;;11.22;2.21;;;;;;;22.25;67.83;100166.27;;;;-50
2021/06/22 14:55:07;;;;;;;6.56;2.27;;;;;;;22.26;67.95;100166.91;;;;-50
2021/06/22 14:58:07;;;;;;;6.57;2.67;;;;;;;22.28;67.77;100168.61;;;;-50
2021/06/22 15:01:07;;;;;;;5.70;2.48;;;;;;;22.28;67.90;100173.08;;;;-47
2021/06/22 15:04:07;;;;;;;6.08;2.62;;;;;;;22.30;68.25;100175.12;;;;-52
2021/06/22 15:07:06;;;;;;;12.18;2.57;;;;;;;22.30;68.40;100172.02;;;;-56
2021/06/22 15:10:07;;;;;;;5.44;2.40;;;;;;;22.33;68.29;100174.50;;;;-50
2021/06/22 15:13:06;;;;;;;11.35;2.57;;;;;;;22.35;68.49;100173.19;;;;-48
2021/06/22 15:16:07;;;;;;;7.52;2.38;;;;;;;22.37;68.40;100165.34;;;;-52
2021/06/22 15:19:07;;;;;;;6.68;2.47;;;;;;;22.38;68.28;100172.91;;;;-58
2021/06/22 15:22:06;;;;;;;7.00;2.41;;;;;;;22.38;68.20;100174.04;;;;-53
2021/06/22 15:25:07;;;;;;;6.01;2.45;;;;;;;22.39;68.21;100177.40;;;;-53
2021/06/22 15:28:06;;;;;;;7.11;2.38;;;;;;;22.40;68.22;100182.11;;;;-51
2021/06/22 15:31:07;;;;;;;5.75;2.37;;;;;;;22.40;68.19;100187.25;;;;-52
2021/06/22 15:34:07;;;;;;;3.65;2.33;;;;;;;22.42;68.19;100181.05;;;;-51
2021/06/22 15:37:06;;;;;;;4.35;2.31;;;;;;;22.42;68.14;100176.64;;;;-49
2021/06/22 15:40:07;;;;;;;5.27;2.25;;;;;;;22.43;68.08;100178.73;;;;-51
2021/06/22 15:43:07;;;;;;;4.03;2.41;;;;;;;22.43;68.15;100180.79;;;;-50
2021/06/22 15:46:07;;;;;;;4.22;2.21;;;;;;;22.44;68.02;100177.59;;;;-56
2021/06/22 15:49:07;;;;;;;5.33;2.38;;;;;;;22.44;68.09;100177.49;;;;-52
2021/06/22 15:52:06;;;;;;;6.01;2.38;;;;;;;22.45;68.00;100177.50;;;;-51
2021/06/22 15:55:16;;;;;;;5.58;2.35;;;;;;;22.46;68.00;100179.36;;;;-58
2021/06/22 15:58:06;;;;;;;5.84;2.33;;;;;;;22.47;68.03;100178.85;;;;-56
2021/06/22 16:01:07;;;;;;;4.08;2.30;;;;;;;22.48;68.04;100177.06;;;;-57
2021/06/22 16:04:07;;;;;;;5.41;2.21;;;;;;;22.47;67.90;100175.58;;;;-59
2021/06/22 16:07:06;;;;;;;5.52;2.15;;;;;;;22.48;67.94;100177.95;;;;-58
2021/06/22 16:10:07;;;;;;;3.11;1.86;;;;;;;22.49;67.84;100179.40;;;;-59
2021/06/22 16:13:06;;;;;;;6.39;2.40;;;;;;;22.49;67.89;100182.83;;;;-58
2021/06/22 16:16:07;;;;;;;4.20;2.30;;;;;;;22.51;67.98;100191.39;;;;-59
2021/06/22 16:19:07;;;;;;;5.55;2.14;;;;;;;22.50;67.92;100190.98;;;;-58
2021/06/22 16:22:06;;;;;;;4.49;2.12;;;;;;;22.52;67.95;100197.02;;;;-56
2021/06/22 16:25:07;;;;;;;3.91;2.36;;;;;;;22.52;67.90;100201.34;;;;-61
2021/06/22 16:28:06;;;;;;;3.96;2.26;;;;;;;22.53;67.84;100197.57;;;;-57
2021/06/22 16:31:07;;;;;;;4.03;2.27;;;;;;;22.53;67.85;100196.43;;;;-57
2021/06/22 16:34:07;;;;;;;3.65;2.18;;;;;;;22.54;67.69;100198.47;;;;-52
2021/06/22 16:37:06;;;;;;;5.45;2.36;;;;;;;22.52;67.76;100204.05;;;;-53
2021/06/22 16:40:09;;;;;;;5.09;2.46;;;;;;;22.52;67.75;100201.94;;;;-52
2021/06/22 16:43:08;;;;;;;4.51;2.20;;;;;;;22.51;67.80;100198.73;;;;-53
2021/06/22 16:46:06;;;;;;;3.00;2.15;;;;;;;22.49;67.73;100199.07;;;;-53